sensor_id;sensor_type;location;lat;lon;timestamp;P1;durP1;ratioP1;P2;durP2;ratioP2
3698;SDS011;1865;50.918;7.092;2023-02-28T00:00:28;5.20;;;1.87;;
3698;SDS011;1865;50.918;7.092;2023-02-28T00:02:54;10.17;;;2.20;;
3698;SDS011;1865;50.918;7.092;2023-02-28T00:05:20;6.60;;;2.03;;
3698;SDS011;1865;50.918;7.092;2023-02-28T00:07:48;9.40;;;2.27;;
3698;SDS011;1865;50.918;7.092;2023-02-28T00:10:16;6.23;;;1.73;;
3698;SDS011;1865;50.918;7.092;2023-02-28T00:12:45;6.00;;;1.70;;
3698;SDS011;1865;50.918;7.092;2023-02-28T00:15:12;6.40;;;2.00;;
3698;SDS011;1865;50.918;7.092;2023-02-28T00:17:38;5.27;;;1.90;;
3698;SDS011;1865;50.918;7.092;2023-02-28T00:20:04;5.57;;;1.50;;
3698;SDS011;1865;50.918;7.092;2023-02-28T00:22:35;7.73;;;2.10;;
3698;SDS011;1865;50.918;7.092;2023-02-28T00:25:02;6.00;;;2.07;;
3698;SDS011;1865;50.918;7.092;2023-02-28T00:27:28;5.40;;;2.23;;
3698;SDS011;1865;50.918;7.092;2023-02-28T00:29:54;5.07;;;1.93;;
3698;SDS011;1865;50.918;7.092;2023-02-28T00:32:20;8.37;;;1.70;;
3698;SDS011;1865;50.918;7.092;2023-02-28T00:34:45;5.93;;;1.77;;
3698;SDS011;1865;50.918;7.092;2023-02-28T00:37:11;6.13;;;1.80;;
3698;SDS011;1865;50.918;7.092;2023-02-28T00:39:37;4.97;;;1.73;;
3698;SDS011;1865;50.918;7.092;2023-02-28T00:42:04;9.63;;;2.37;;
3698;SDS011;1865;50.918;7.092;2023-02-28T00:44:31;10.03;;;1.90;;
3698;SDS011;1865;50.918;7.092;2023-02-28T00:46:57;8.83;;;2.13;;
3698;SDS011;1865;50.918;7.092;2023-02-28T00:49:23;9.33;;;1.80;;
3698;SDS011;1865;50.918;7.092;2023-02-28T00:51:50;7.30;;;1.80;;
3698;SDS011;1865;50.918;7.092;2023-02-28T00:54:16;7.20;;;1.67;;
3698;SDS011;1865;50.918;7.092;2023-02-28T00:56:42;5.83;;;2.03;;
3698;SDS011;1865;50.918;7.092;2023-02-28T00:59:07;9.80;;;1.60;;
3698;SDS011;1865;50.918;7.092;2023-02-28T01:01:33;6.53;;;1.67;;
3698;SDS011;1865;50.918;7.092;2023-02-28T01:03:59;7.23;;;2.10;;
3698;SDS011;1865;50.918;7.092;2023-02-28T01:06:24;6.00;;;1.97;;
3698;SDS011;1865;50.918;7.092;2023-02-28T01:08:50;5.80;;;1.50;;
3698;SDS011;1865;50.918;7.092;2023-02-28T01:11:16;4.63;;;1.50;;
3698;SDS011;1865;50.918;7.092;2023-02-28T01:13:43;5.00;;;1.90;;
3698;SDS011;1865;50.918;7.092;2023-02-28T01:16:09;16.13;;;1.70;;
3698;SDS011;1865;50.918;7.092;2023-02-28T01:18:35;7.47;;;1.90;;
3698;SDS011;1865;50.918;7.092;2023-02-28T01:21:05;6.63;;;1.67;;
3698;SDS011;1865;50.918;7.092;2023-02-28T01:23:35;10.13;;;2.70;;
3698;SDS011;1865;50.918;7.092;2023-02-28T01:26:08;4.73;;;1.63;;
3698;SDS011;1865;50.918;7.092;2023-02-28T01:28:36;6.90;;;1.80;;
3698;SDS011;1865;50.918;7.092;2023-02-28T01:31:02;6.00;;;1.67;;
3698;SDS011;1865;50.918;7.092;2023-02-28T01:33:28;6.37;;;1.70;;
3698;SDS011;1865;50.918;7.092;2023-02-28T01:35:57;5.30;;;1.97;;
3698;SDS011;1865;50.918;7.092;2023-02-28T01:38:29;6.93;;;1.60;;
3698;SDS011;1865;50.918;7.092;2023-02-28T01:40:55;4.93;;;1.80;;
3698;SDS011;1865;50.918;7.092;2023-02-28T01:43:24;12.27;;;2.13;;
3698;SDS011;1865;50.918;7.092;2023-02-28T01:45:52;5.87;;;1.50;;
3698;SDS011;1865;50.918;7.092;2023-02-28T01:48:21;5.53;;;1.90;;
3698;SDS011;1865;50.918;7.092;2023-02-28T01:50:55;6.30;;;2.00;;
3698;SDS011;1865;50.918;7.092;2023-02-28T01:53:33;6.10;;;2.30;;
3698;SDS011;1865;50.918;7.092;2023-02-28T01:56:03;5.70;;;1.70;;
3698;SDS011;1865;50.918;7.092;2023-02-28T01:58:31;7.70;;;2.10;;
3698;SDS011;1865;50.918;7.092;2023-02-28T02:00:57;5.90;;;1.50;;
3698;SDS011;1865;50.918;7.092;2023-02-28T02:03:22;7.63;;;1.67;;
3698;SDS011;1865;50.918;7.092;2023-02-28T02:05:49;8.03;;;2.03;;
3698;SDS011;1865;50.918;7.092;2023-02-28T02:08:19;5.63;;;1.70;;
3698;SDS011;1865;50.918;7.092;2023-02-28T02:10:48;5.60;;;1.90;;
3698;SDS011;1865;50.918;7.092;2023-02-28T02:15:56;5.73;;;1.70;;
3698;SDS011;1865;50.918;7.092;2023-02-28T02:18:46;7.30;;;1.53;;
3698;SDS011;1865;50.918;7.092;2023-02-28T02:21:27;4.50;;;1.50;;
3698;SDS011;1865;50.918;7.092;2023-02-28T02:29:53;4.60;;;1.40;;
3698;SDS011;1865;50.918;7.092;2023-02-28T02:32:33;6.53;;;1.80;;
3698;SDS011;1865;50.918;7.092;2023-02-28T02:35:31;5.50;;;1.80;;
3698;SDS011;1865;50.918;7.092;2023-02-28T02:41:23;6.20;;;1.80;;
3698;SDS011;1865;50.918;7.092;2023-02-28T02:43:51;5.80;;;1.40;;
3698;SDS011;1865;50.918;7.092;2023-02-28T02:46:26;6.10;;;2.30;;
3698;SDS011;1865;50.918;7.092;2023-02-28T02:48:57;6.00;;;2.23;;
3698;SDS011;1865;50.918;7.092;2023-02-28T02:51:25;5.97;;;1.47;;
3698;SDS011;1865;50.918;7.092;2023-02-28T02:54:16;4.83;;;1.60;;
3698;SDS011;1865;50.918;7.092;2023-02-28T02:56:46;6.90;;;1.20;;
3698;SDS011;1865;50.918;7.092;2023-02-28T02:59:13;5.57;;;1.70;;
3698;SDS011;1865;50.918;7.092;2023-02-28T03:01:46;7.73;;;1.80;;
3698;SDS011;1865;50.918;7.092;2023-02-28T03:04:17;6.90;;;1.67;;
3698;SDS011;1865;50.918;7.092;2023-02-28T03:06:46;5.70;;;1.60;;
3698;SDS011;1865;50.918;7.092;2023-02-28T03:09:12;5.37;;;1.67;;
3698;SDS011;1865;50.918;7.092;2023-02-28T03:11:38;9.83;;;1.70;;
3698;SDS011;1865;50.918;7.092;2023-02-28T03:19:44;5.50;;;1.83;;
3698;SDS011;1865;50.918;7.092;2023-02-28T03:27:39;4.20;;;1.20;;
3698;SDS011;1865;50.918;7.092;2023-02-28T03:33:27;7.07;;;1.97;;
3698;SDS011;1865;50.918;7.092;2023-02-28T03:36:01;5.63;;;1.73;;
3698;SDS011;1865;50.918;7.092;2023-02-28T03:38:32;7.60;;;1.83;;
3698;SDS011;1865;50.918;7.092;2023-02-28T03:43:43;5.60;;;1.87;;
3698;SDS011;1865;50.918;7.092;2023-02-28T03:46:15;4.90;;;1.20;;
3698;SDS011;1865;50.918;7.092;2023-02-28T03:48:51;4.53;;;1.63;;
3698;SDS011;1865;50.918;7.092;2023-02-28T03:51:25;6.33;;;1.87;;
3698;SDS011;1865;50.918;7.092;2023-02-28T03:53:54;6.10;;;1.80;;
3698;SDS011;1865;50.918;7.092;2023-02-28T03:56:27;6.57;;;1.90;;
3698;SDS011;1865;50.918;7.092;2023-02-28T03:59:02;7.93;;;2.20;;
3698;SDS011;1865;50.918;7.092;2023-02-28T04:01:44;5.77;;;2.10;;
3698;SDS011;1865;50.918;7.092;2023-02-28T04:04:11;5.83;;;1.80;;
3698;SDS011;1865;50.918;7.092;2023-02-28T04:06:37;6.70;;;2.10;;
3698;SDS011;1865;50.918;7.092;2023-02-28T04:09:04;5.80;;;2.00;;
3698;SDS011;1865;50.918;7.092;2023-02-28T04:11:41;5.70;;;1.60;;
3698;SDS011;1865;50.918;7.092;2023-02-28T04:14:10;7.17;;;1.80;;
3698;SDS011;1865;50.918;7.092;2023-02-28T04:16:37;5.40;;;2.10;;
3698;SDS011;1865;50.918;7.092;2023-02-28T04:19:06;9.13;;;2.00;;
3698;SDS011;1865;50.918;7.092;2023-02-28T04:24:06;5.27;;;1.60;;
3698;SDS011;1865;50.918;7.092;2023-02-28T04:26:39;5.53;;;1.97;;
3698;SDS011;1865;50.918;7.092;2023-02-28T04:29:06;9.20;;;1.80;;
3698;SDS011;1865;50.918;7.092;2023-02-28T04:31:32;6.30;;;1.77;;
3698;SDS011;1865;50.918;7.092;2023-02-28T04:33:58;4.50;;;1.87;;
3698;SDS011;1865;50.918;7.092;2023-02-28T04:36:25;7.53;;;1.50;;
3698;SDS011;1865;50.918;7.092;2023-02-28T04:38:50;5.80;;;1.77;;
3698;SDS011;1865;50.918;7.092;2023-02-28T04:41:16;5.13;;;1.63;;
3698;SDS011;1865;50.918;7.092;2023-02-28T04:43:42;4.37;;;1.57;;
3698;SDS011;1865;50.918;7.092;2023-02-28T04:46:07;5.83;;;1.50;;
3698;SDS011;1865;50.918;7.092;2023-02-28T04:48:35;4.50;;;1.70;;
3698;SDS011;1865;50.918;7.092;2023-02-28T04:51:02;6.10;;;1.73;;
3698;SDS011;1865;50.918;7.092;2023-02-28T04:53:29;5.30;;;1.53;;
3698;SDS011;1865;50.918;7.092;2023-02-28T04:55:58;7.47;;;2.03;;
3698;SDS011;1865;50.918;7.092;2023-02-28T04:58:24;4.50;;;1.47;;
3698;SDS011;1865;50.918;7.092;2023-02-28T05:00:50;6.03;;;1.90;;
3698;SDS011;1865;50.918;7.092;2023-02-28T05:03:16;5.83;;;1.63;;
3698;SDS011;1865;50.918;7.092;2023-02-28T05:05:42;5.17;;;1.60;;
3698;SDS011;1865;50.918;7.092;2023-02-28T05:08:08;5.10;;;1.73;;
3698;SDS011;1865;50.918;7.092;2023-02-28T05:10:34;8.10;;;2.20;;
3698;SDS011;1865;50.918;7.092;2023-02-28T05:13:00;7.27;;;1.70;;
3698;SDS011;1865;50.918;7.092;2023-02-28T05:15:26;6.50;;;2.07;;
3698;SDS011;1865;50.918;7.092;2023-02-28T05:17:51;5.40;;;1.73;;
3698;SDS011;1865;50.918;7.092;2023-02-28T05:20:17;7.00;;;2.20;;
3698;SDS011;1865;50.918;7.092;2023-02-28T05:22:42;4.70;;;1.50;;
3698;SDS011;1865;50.918;7.092;2023-02-28T05:25:18;5.30;;;1.77;;
3698;SDS011;1865;50.918;7.092;2023-02-28T05:27:46;7.20;;;2.07;;
3698;SDS011;1865;50.918;7.092;2023-02-28T05:30:12;6.40;;;2.00;;
3698;SDS011;1865;50.918;7.092;2023-02-28T05:32:38;12.37;;;2.47;;
3698;SDS011;1865;50.918;7.092;2023-02-28T05:35:07;5.30;;;2.00;;
3698;SDS011;1865;50.918;7.092;2023-02-28T05:37:34;5.43;;;1.87;;
3698;SDS011;1865;50.918;7.092;2023-02-28T05:40:00;5.57;;;1.80;;
3698;SDS011;1865;50.918;7.092;2023-02-28T05:42:26;4.80;;;1.90;;
3698;SDS011;1865;50.918;7.092;2023-02-28T05:44:51;5.57;;;1.70;;
3698;SDS011;1865;50.918;7.092;2023-02-28T05:47:17;12.67;;;1.90;;
3698;SDS011;1865;50.918;7.092;2023-02-28T05:49:42;7.80;;;2.13;;
3698;SDS011;1865;50.918;7.092;2023-02-28T05:52:08;6.83;;;1.83;;
3698;SDS011;1865;50.918;7.092;2023-02-28T05:54:34;5.80;;;1.83;;
3698;SDS011;1865;50.918;7.092;2023-02-28T05:56:59;4.53;;;1.70;;
3698;SDS011;1865;50.918;7.092;2023-02-28T05:59:25;3.97;;;1.60;;
3698;SDS011;1865;50.918;7.092;2023-02-28T06:01:50;8.33;;;1.80;;
3698;SDS011;1865;50.918;7.092;2023-02-28T06:04:18;4.73;;;1.60;;
3698;SDS011;1865;50.918;7.092;2023-02-28T06:06:46;5.40;;;1.60;;
3698;SDS011;1865;50.918;7.092;2023-02-28T06:09:12;5.77;;;1.63;;
3698;SDS011;1865;50.918;7.092;2023-02-28T06:11:38;5.97;;;1.80;;
3698;SDS011;1865;50.918;7.092;2023-02-28T06:14:04;6.27;;;2.33;;
3698;SDS011;1865;50.918;7.092;2023-02-28T06:16:30;4.97;;;1.80;;
3698;SDS011;1865;50.918;7.092;2023-02-28T06:18:58;5.50;;;2.00;;
3698;SDS011;1865;50.918;7.092;2023-02-28T06:21:25;5.20;;;2.00;;
3698;SDS011;1865;50.918;7.092;2023-02-28T06:23:52;6.40;;;2.07;;
3698;SDS011;1865;50.918;7.092;2023-02-28T06:26:18;5.27;;;2.00;;
3698;SDS011;1865;50.918;7.092;2023-02-28T06:28:44;5.93;;;2.30;;
3698;SDS011;1865;50.918;7.092;2023-02-28T06:31:10;5.77;;;1.50;;
3698;SDS011;1865;50.918;7.092;2023-02-28T06:33:37;8.67;;;2.30;;
3698;SDS011;1865;50.918;7.092;2023-02-28T06:36:04;4.57;;;1.90;;
3698;SDS011;1865;50.918;7.092;2023-02-28T06:38:31;5.97;;;2.13;;
3698;SDS011;1865;50.918;7.092;2023-02-28T06:40:58;9.30;;;2.23;;
3698;SDS011;1865;50.918;7.092;2023-02-28T06:43:25;6.60;;;2.23;;
3698;SDS011;1865;50.918;7.092;2023-02-28T06:45:56;5.30;;;1.90;;
3698;SDS011;1865;50.918;7.092;2023-02-28T06:48:22;6.40;;;1.93;;
3698;SDS011;1865;50.918;7.092;2023-02-28T06:50:48;6.00;;;2.00;;
3698;SDS011;1865;50.918;7.092;2023-02-28T06:53:14;7.30;;;2.00;;
3698;SDS011;1865;50.918;7.092;2023-02-28T06:55:39;5.17;;;2.10;;
3698;SDS011;1865;50.918;7.092;2023-02-28T06:58:05;6.10;;;1.67;;
3698;SDS011;1865;50.918;7.092;2023-02-28T07:00:42;5.50;;;1.87;;
3698;SDS011;1865;50.918;7.092;2023-02-28T07:03:09;4.93;;;2.07;;
3698;SDS011;1865;50.918;7.092;2023-02-28T07:05:36;5.97;;;1.70;;
3698;SDS011;1865;50.918;7.092;2023-02-28T07:08:03;4.60;;;1.70;;
3698;SDS011;1865;50.918;7.092;2023-02-28T07:10:30;11.93;;;2.20;;
3698;SDS011;1865;50.918;7.092;2023-02-28T07:12:57;5.30;;;1.80;;
3698;SDS011;1865;50.918;7.092;2023-02-28T07:15:23;6.10;;;2.00;;
3698;SDS011;1865;50.918;7.092;2023-02-28T07:17:49;5.57;;;1.93;;
3698;SDS011;1865;50.918;7.092;2023-02-28T07:20:15;8.07;;;1.50;;
3698;SDS011;1865;50.918;7.092;2023-02-28T07:22:41;5.10;;;1.63;;
3698;SDS011;1865;50.918;7.092;2023-02-28T07:25:06;6.30;;;1.90;;
3698;SDS011;1865;50.918;7.092;2023-02-28T07:27:33;6.60;;;2.40;;
3698;SDS011;1865;50.918;7.092;2023-02-28T07:29:59;8.83;;;1.77;;
3698;SDS011;1865;50.918;7.092;2023-02-28T07:32:26;4.67;;;1.70;;
3698;SDS011;1865;50.918;7.092;2023-02-28T07:34:52;4.90;;;1.47;;
3698;SDS011;1865;50.918;7.092;2023-02-28T07:37:18;7.60;;;2.20;;
3698;SDS011;1865;50.918;7.092;2023-02-28T07:39:44;4.30;;;1.60;;
3698;SDS011;1865;50.918;7.092;2023-02-28T07:42:09;5.73;;;1.87;;
3698;SDS011;1865;50.918;7.092;2023-02-28T07:44:37;6.87;;;1.50;;
3698;SDS011;1865;50.918;7.092;2023-02-28T07:47:06;9.47;;;1.57;;
3698;SDS011;1865;50.918;7.092;2023-02-28T07:49:32;6.87;;;1.93;;
3698;SDS011;1865;50.918;7.092;2023-02-28T07:51:59;4.83;;;1.73;;
3698;SDS011;1865;50.918;7.092;2023-02-28T07:54:24;5.37;;;2.00;;
3698;SDS011;1865;50.918;7.092;2023-02-28T07:56:50;5.20;;;1.53;;
3698;SDS011;1865;50.918;7.092;2023-02-28T07:59:15;6.70;;;1.53;;
3698;SDS011;1865;50.918;7.092;2023-02-28T08:01:41;5.23;;;1.30;;
3698;SDS011;1865;50.918;7.092;2023-02-28T08:04:08;6.20;;;2.20;;
3698;SDS011;1865;50.918;7.092;2023-02-28T08:06:34;4.17;;;1.30;;
3698;SDS011;1865;50.918;7.092;2023-02-28T08:09:00;5.37;;;1.60;;
3698;SDS011;1865;50.918;7.092;2023-02-28T08:11:25;5.83;;;1.30;;
3698;SDS011;1865;50.918;7.092;2023-02-28T08:13:51;5.00;;;1.50;;
3698;SDS011;1865;50.918;7.092;2023-02-28T08:16:17;5.00;;;1.60;;
3698;SDS011;1865;50.918;7.092;2023-02-28T08:18:46;5.63;;;2.07;;
3698;SDS011;1865;50.918;7.092;2023-02-28T08:21:13;5.43;;;1.63;;
3698;SDS011;1865;50.918;7.092;2023-02-28T08:23:38;5.33;;;1.47;;
3698;SDS011;1865;50.918;7.092;2023-02-28T08:26:04;4.83;;;1.43;;
3698;SDS011;1865;50.918;7.092;2023-02-28T08:28:30;5.80;;;1.50;;
3698;SDS011;1865;50.918;7.092;2023-02-28T08:30:56;4.50;;;1.30;;
3698;SDS011;1865;50.918;7.092;2023-02-28T08:33:22;4.90;;;1.20;;
3698;SDS011;1865;50.918;7.092;2023-02-28T08:35:48;5.10;;;1.60;;
3698;SDS011;1865;50.918;7.092;2023-02-28T08:38:13;4.97;;;1.40;;
3698;SDS011;1865;50.918;7.092;2023-02-28T08:40:39;6.03;;;1.53;;
3698;SDS011;1865;50.918;7.092;2023-02-28T08:43:05;4.87;;;1.63;;
3698;SDS011;1865;50.918;7.092;2023-02-28T08:45:31;4.67;;;1.27;;
3698;SDS011;1865;50.918;7.092;2023-02-28T08:47:56;6.37;;;1.90;;
3698;SDS011;1865;50.918;7.092;2023-02-28T08:50:22;5.30;;;1.50;;
3698;SDS011;1865;50.918;7.092;2023-02-28T08:52:47;5.43;;;1.30;;
3698;SDS011;1865;50.918;7.092;2023-02-28T08:55:13;5.93;;;1.50;;
3698;SDS011;1865;50.918;7.092;2023-02-28T08:57:38;4.67;;;1.03;;
3698;SDS011;1865;50.918;7.092;2023-02-28T09:00:04;11.40;;;1.33;;
3698;SDS011;1865;50.918;7.092;2023-02-28T09:02:30;4.90;;;1.17;;
3698;SDS011;1865;50.918;7.092;2023-02-28T09:04:56;5.30;;;1.17;;
3698;SDS011;1865;50.918;7.092;2023-02-28T09:07:24;5.23;;;1.03;;
3698;SDS011;1865;50.918;7.092;2023-02-28T09:09:50;4.83;;;1.00;;
3698;SDS011;1865;50.918;7.092;2023-02-28T09:12:19;5.80;;;1.20;;
3698;SDS011;1865;50.918;7.092;2023-02-28T09:14:58;5.60;;;1.17;;
3698;SDS011;1865;50.918;7.092;2023-02-28T09:17:23;5.27;;;1.20;;
3698;SDS011;1865;50.918;7.092;2023-02-28T09:19:49;6.33;;;1.60;;
3698;SDS011;1865;50.918;7.092;2023-02-28T09:22:14;5.40;;;1.17;;
3698;SDS011;1865;50.918;7.092;2023-02-28T09:24:40;4.90;;;1.00;;
3698;SDS011;1865;50.918;7.092;2023-02-28T09:27:06;5.20;;;1.30;;
3698;SDS011;1865;50.918;7.092;2023-02-28T09:29:32;5.57;;;1.43;;
3698;SDS011;1865;50.918;7.092;2023-02-28T09:31:59;10.33;;;1.40;;
3698;SDS011;1865;50.918;7.092;2023-02-28T09:34:25;5.50;;;1.00;;
3698;SDS011;1865;50.918;7.092;2023-02-28T09:36:51;6.23;;;1.53;;
3698;SDS011;1865;50.918;7.092;2023-02-28T09:39:19;6.70;;;1.07;;
3698;SDS011;1865;50.918;7.092;2023-02-28T09:41:47;5.57;;;1.10;;
3698;SDS011;1865;50.918;7.092;2023-02-28T09:44:24;14.30;;;1.20;;
3698;SDS011;1865;50.918;7.092;2023-02-28T09:49:51;5.60;;;1.43;;
3698;SDS011;1865;50.918;7.092;2023-02-28T09:52:18;9.83;;;1.60;;
3698;SDS011;1865;50.918;7.092;2023-02-28T09:54:47;5.30;;;1.30;;
3698;SDS011;1865;50.918;7.092;2023-02-28T09:57:15;5.40;;;1.50;;
3698;SDS011;1865;50.918;7.092;2023-02-28T10:05:30;4.80;;;1.20;;
3698;SDS011;1865;50.918;7.092;2023-02-28T10:13:15;5.67;;;1.20;;
3698;SDS011;1865;50.918;7.092;2023-02-28T10:15:58;6.00;;;1.20;;
3698;SDS011;1865;50.918;7.092;2023-02-28T10:18:41;12.70;;;1.17;;
3698;SDS011;1865;50.918;7.092;2023-02-28T10:21:16;5.90;;;1.37;;
3698;SDS011;1865;50.918;7.092;2023-02-28T10:23:46;10.53;;;1.50;;
3698;SDS011;1865;50.918;7.092;2023-02-28T10:26:14;5.60;;;1.37;;
3698;SDS011;1865;50.918;7.092;2023-02-28T10:28:42;8.73;;;1.33;;
3698;SDS011;1865;50.918;7.092;2023-02-28T10:31:10;4.73;;;1.40;;
3698;SDS011;1865;50.918;7.092;2023-02-28T10:33:42;5.00;;;1.43;;
3698;SDS011;1865;50.918;7.092;2023-02-28T10:36:10;6.80;;;1.80;;
3698;SDS011;1865;50.918;7.092;2023-02-28T10:38:42;6.80;;;1.37;;
3698;SDS011;1865;50.918;7.092;2023-02-28T10:41:09;5.40;;;1.50;;
3698;SDS011;1865;50.918;7.092;2023-02-28T10:44:40;5.40;;;1.33;;
3698;SDS011;1865;50.918;7.092;2023-02-28T10:46:46;5.27;;;1.40;;
3698;SDS011;1865;50.918;7.092;2023-02-28T10:49:15;4.83;;;1.13;;
3698;SDS011;1865;50.918;7.092;2023-02-28T10:51:47;5.13;;;1.70;;
3698;SDS011;1865;50.918;7.092;2023-02-28T10:54:20;5.00;;;1.50;;
3698;SDS011;1865;50.918;7.092;2023-02-28T10:57:05;6.73;;;1.63;;
3698;SDS011;1865;50.918;7.092;2023-02-28T10:59:34;7.93;;;1.87;;
3698;SDS011;1865;50.918;7.092;2023-02-28T11:01:59;8.67;;;1.60;;
3698;SDS011;1865;50.918;7.092;2023-02-28T11:07:09;6.70;;;1.50;;
3698;SDS011;1865;50.918;7.092;2023-02-28T11:09:47;5.60;;;1.60;;
3698;SDS011;1865;50.918;7.092;2023-02-28T11:12:57;6.60;;;1.40;;
3698;SDS011;1865;50.918;7.092;2023-02-28T11:15:07;5.83;;;1.60;;
3698;SDS011;1865;50.918;7.092;2023-02-28T11:17:43;7.07;;;1.70;;
3698;SDS011;1865;50.918;7.092;2023-02-28T11:20:18;5.90;;;1.47;;
3698;SDS011;1865;50.918;7.092;2023-02-28T11:22:48;11.30;;;1.60;;
3698;SDS011;1865;50.918;7.092;2023-02-28T11:25:25;8.63;;;1.63;;
3698;SDS011;1865;50.918;7.092;2023-02-28T11:28:02;5.37;;;1.47;;
3698;SDS011;1865;50.918;7.092;2023-02-28T11:30:40;10.10;;;1.30;;
3698;SDS011;1865;50.918;7.092;2023-02-28T11:35:57;7.00;;;1.80;;
3698;SDS011;1865;50.918;7.092;2023-02-28T11:38:29;6.80;;;1.77;;
3698;SDS011;1865;50.918;7.092;2023-02-28T11:43:34;8.67;;;1.87;;
3698;SDS011;1865;50.918;7.092;2023-02-28T11:46:09;7.00;;;1.90;;
3698;SDS011;1865;50.918;7.092;2023-02-28T11:51:24;7.53;;;2.10;;
3698;SDS011;1865;50.918;7.092;2023-02-28T12:10:37;8.90;;;3.53;;
3698;SDS011;1865;50.918;7.092;2023-02-28T12:13:24;12.43;;;2.33;;
3698;SDS011;1865;50.918;7.092;2023-02-28T12:18:36;6.77;;;1.60;;
3698;SDS011;1865;50.918;7.092;2023-02-28T12:24:05;7.90;;;1.77;;
3698;SDS011;1865;50.918;7.092;2023-02-28T12:26:50;7.10;;;1.90;;
3698;SDS011;1865;50.918;7.092;2023-02-28T12:29:25;7.13;;;1.83;;
3698;SDS011;1865;50.918;7.092;2023-02-28T12:32:09;7.53;;;2.03;;
3698;SDS011;1865;50.918;7.092;2023-02-28T12:37:52;7.60;;;2.30;;
3698;SDS011;1865;50.918;7.092;2023-02-28T12:40:33;7.10;;;2.10;;
3698;SDS011;1865;50.918;7.092;2023-02-28T12:43:05;9.60;;;1.63;;
3698;SDS011;1865;50.918;7.092;2023-02-28T12:45:41;9.17;;;2.57;;
3698;SDS011;1865;50.918;7.092;2023-02-28T12:48:16;8.30;;;2.17;;
3698;SDS011;1865;50.918;7.092;2023-02-28T12:50:50;7.73;;;2.30;;
3698;SDS011;1865;50.918;7.092;2023-02-28T12:53:31;8.77;;;2.60;;
3698;SDS011;1865;50.918;7.092;2023-02-28T13:04:41;9.03;;;2.60;;
3698;SDS011;1865;50.918;7.092;2023-02-28T13:09:54;10.70;;;2.33;;
3698;SDS011;1865;50.918;7.092;2023-02-28T13:12:24;8.87;;;2.23;;
3698;SDS011;1865;50.918;7.092;2023-02-28T13:14:51;8.77;;;2.30;;
3698;SDS011;1865;50.918;7.092;2023-02-28T13:17:49;9.00;;;2.57;;
3698;SDS011;1865;50.918;7.092;2023-02-28T13:20:19;11.30;;;2.50;;
3698;SDS011;1865;50.918;7.092;2023-02-28T13:22:53;9.93;;;2.60;;
3698;SDS011;1865;50.918;7.092;2023-02-28T13:28:10;9.10;;;2.60;;
3698;SDS011;1865;50.918;7.092;2023-02-28T13:33:30;9.70;;;2.43;;
3698;SDS011;1865;50.918;7.092;2023-02-28T13:44:05;8.33;;;2.53;;
3698;SDS011;1865;50.918;7.092;2023-02-28T13:46:31;8.70;;;2.50;;
3698;SDS011;1865;50.918;7.092;2023-02-28T13:51:44;12.00;;;2.77;;
3698;SDS011;1865;50.918;7.092;2023-02-28T13:54:33;12.60;;;3.20;;
3698;SDS011;1865;50.918;7.092;2023-02-28T13:57:30;10.07;;;3.10;;
3698;SDS011;1865;50.918;7.092;2023-02-28T14:03:27;13.90;;;3.13;;
3698;SDS011;1865;50.918;7.092;2023-02-28T14:06:08;12.60;;;2.60;;
3698;SDS011;1865;50.918;7.092;2023-02-28T14:08:34;8.17;;;2.47;;
3698;SDS011;1865;50.918;7.092;2023-02-28T14:11:04;11.23;;;2.60;;
3698;SDS011;1865;50.918;7.092;2023-02-28T14:13:41;9.77;;;2.80;;
3698;SDS011;1865;50.918;7.092;2023-02-28T14:16:21;9.90;;;2.73;;
3698;SDS011;1865;50.918;7.092;2023-02-28T14:22:08;9.03;;;2.73;;
3698;SDS011;1865;50.918;7.092;2023-02-28T14:25:30;8.80;;;2.27;;
3698;SDS011;1865;50.918;7.092;2023-02-28T14:30:57;11.63;;;2.77;;
3698;SDS011;1865;50.918;7.092;2023-02-28T14:36:04;10.40;;;2.97;;
3698;SDS011;1865;50.918;7.092;2023-02-28T14:38:47;10.40;;;3.00;;
3698;SDS011;1865;50.918;7.092;2023-02-28T14:41:23;7.80;;;2.50;;
3698;SDS011;1865;50.918;7.092;2023-02-28T14:44:03;11.00;;;2.70;;
3698;SDS011;1865;50.918;7.092;2023-02-28T14:47:00;7.20;;;2.90;;
3698;SDS011;1865;50.918;7.092;2023-02-28T14:49:38;8.07;;;2.57;;
3698;SDS011;1865;50.918;7.092;2023-02-28T14:54:40;9.87;;;3.30;;
3698;SDS011;1865;50.918;7.092;2023-02-28T14:57:06;8.23;;;3.07;;
3698;SDS011;1865;50.918;7.092;2023-02-28T14:59:44;9.00;;;2.73;;
3698;SDS011;1865;50.918;7.092;2023-02-28T15:02:17;9.83;;;3.33;;
3698;SDS011;1865;50.918;7.092;2023-02-28T15:04:57;8.57;;;3.10;;
3698;SDS011;1865;50.918;7.092;2023-02-28T15:07:25;9.77;;;2.87;;
3698;SDS011;1865;50.918;7.092;2023-02-28T15:12:55;9.17;;;3.37;;
3698;SDS011;1865;50.918;7.092;2023-02-28T15:17:55;8.00;;;2.70;;
3698;SDS011;1865;50.918;7.092;2023-02-28T15:20:24;7.57;;;2.50;;
3698;SDS011;1865;50.918;7.092;2023-02-28T15:22:52;7.93;;;2.73;;
3698;SDS011;1865;50.918;7.092;2023-02-28T15:25:20;7.80;;;2.70;;
3698;SDS011;1865;50.918;7.092;2023-02-28T15:27:48;10.23;;;2.70;;
3698;SDS011;1865;50.918;7.092;2023-02-28T15:30:21;9.23;;;2.90;;
3698;SDS011;1865;50.918;7.092;2023-02-28T15:35:36;8.00;;;2.90;;
3698;SDS011;1865;50.918;7.092;2023-02-28T15:38:03;8.00;;;2.70;;
3698;SDS011;1865;50.918;7.092;2023-02-28T15:40:45;7.20;;;2.80;;
3698;SDS011;1865;50.918;7.092;2023-02-28T15:48:34;6.60;;;2.50;;
3698;SDS011;1865;50.918;7.092;2023-02-28T15:51:09;7.37;;;2.47;;
3698;SDS011;1865;50.918;7.092;2023-02-28T15:56:21;7.03;;;2.53;;
3698;SDS011;1865;50.918;7.092;2023-02-28T15:58:49;7.57;;;3.03;;
3698;SDS011;1865;50.918;7.092;2023-02-28T16:01:20;7.83;;;2.37;;
3698;SDS011;1865;50.918;7.092;2023-02-28T16:04:03;6.70;;;2.37;;
3698;SDS011;1865;50.918;7.092;2023-02-28T16:09:22;7.10;;;2.63;;
3698;SDS011;1865;50.918;7.092;2023-02-28T16:11:49;6.77;;;2.30;;
3698;SDS011;1865;50.918;7.092;2023-02-28T16:14:21;7.90;;;2.33;;
3698;SDS011;1865;50.918;7.092;2023-02-28T16:16:49;9.00;;;3.00;;
3698;SDS011;1865;50.918;7.092;2023-02-28T16:19:18;10.63;;;3.43;;
3698;SDS011;1865;50.918;7.092;2023-02-28T16:21:44;7.60;;;2.60;;
3698;SDS011;1865;50.918;7.092;2023-02-28T16:24:10;8.23;;;2.77;;
3698;SDS011;1865;50.918;7.092;2023-02-28T16:26:36;6.07;;;2.17;;
3698;SDS011;1865;50.918;7.092;2023-02-28T16:29:04;11.13;;;2.67;;
3698;SDS011;1865;50.918;7.092;2023-02-28T16:31:30;8.90;;;2.67;;
3698;SDS011;1865;50.918;7.092;2023-02-28T16:34:00;7.90;;;2.47;;
3698;SDS011;1865;50.918;7.092;2023-02-28T16:36:25;7.80;;;2.73;;
3698;SDS011;1865;50.918;7.092;2023-02-28T16:38:51;8.60;;;3.03;;
3698;SDS011;1865;50.918;7.092;2023-02-28T16:41:19;8.60;;;3.13;;
3698;SDS011;1865;50.918;7.092;2023-02-28T16:43:47;7.53;;;2.23;;
3698;SDS011;1865;50.918;7.092;2023-02-28T16:46:14;11.13;;;3.03;;
3698;SDS011;1865;50.918;7.092;2023-02-28T16:48:41;7.27;;;2.37;;
3698;SDS011;1865;50.918;7.092;2023-02-28T16:51:16;8.80;;;3.00;;
3698;SDS011;1865;50.918;7.092;2023-02-28T16:53:43;7.63;;;2.90;;
3698;SDS011;1865;50.918;7.092;2023-02-28T16:56:15;7.70;;;2.50;;
3698;SDS011;1865;50.918;7.092;2023-02-28T16:58:41;20.10;;;2.90;;
3698;SDS011;1865;50.918;7.092;2023-02-28T17:01:06;8.00;;;2.70;;
3698;SDS011;1865;50.918;7.092;2023-02-28T17:03:32;9.20;;;2.97;;
3698;SDS011;1865;50.918;7.092;2023-02-28T17:05:57;8.23;;;2.73;;
3698;SDS011;1865;50.918;7.092;2023-02-28T17:08:23;6.93;;;2.80;;
3698;SDS011;1865;50.918;7.092;2023-02-28T17:10:48;7.60;;;2.43;;
3698;SDS011;1865;50.918;7.092;2023-02-28T17:13:14;11.33;;;2.60;;
3698;SDS011;1865;50.918;7.092;2023-02-28T17:15:39;8.30;;;2.40;;
3698;SDS011;1865;50.918;7.092;2023-02-28T17:18:05;7.53;;;2.17;;
3698;SDS011;1865;50.918;7.092;2023-02-28T17:20:33;11.77;;;2.27;;
3698;SDS011;1865;50.918;7.092;2023-02-28T17:22:59;7.57;;;2.03;;
3698;SDS011;1865;50.918;7.092;2023-02-28T17:25:25;7.40;;;2.10;;
3698;SDS011;1865;50.918;7.092;2023-02-28T17:27:51;5.93;;;2.13;;
3698;SDS011;1865;50.918;7.092;2023-02-28T17:30:18;6.63;;;2.50;;
3698;SDS011;1865;50.918;7.092;2023-02-28T17:32:48;7.50;;;2.37;;
3698;SDS011;1865;50.918;7.092;2023-02-28T17:35:14;6.57;;;2.13;;
3698;SDS011;1865;50.918;7.092;2023-02-28T17:37:41;7.13;;;2.50;;
3698;SDS011;1865;50.918;7.092;2023-02-28T17:40:12;13.03;;;3.00;;
3698;SDS011;1865;50.918;7.092;2023-02-28T17:42:43;7.00;;;2.67;;
3698;SDS011;1865;50.918;7.092;2023-02-28T17:45:09;7.27;;;2.93;;
3698;SDS011;1865;50.918;7.092;2023-02-28T17:47:35;9.53;;;2.70;;
3698;SDS011;1865;50.918;7.092;2023-02-28T17:50:01;9.43;;;3.60;;
3698;SDS011;1865;50.918;7.092;2023-02-28T17:52:26;11.80;;;3.47;;